sensor_id;sensor_type;location;lat;lon;timestamp;temperature;humidity
10566;DHT22;5331;48.148;16.326;2023-04-09T00:01:24;5.20;1.00
10566;DHT22;5331;48.148;16.326;2023-04-09T00:03:51;5.10;1.00
10566;DHT22;5331;48.148;16.326;2023-04-09T00:06:18;5.10;1.00
10566;DHT22;5331;48.148;16.326;2023-04-09T00:08:46;5.10;1.00
10566;DHT22;5331;48.148;16.326;2023-04-09T00:11:13;5.10;1.00
10566;DHT22;5331;48.148;16.326;2023-04-09T00:13:40;5.20;1.00
10566;DHT22;5331;48.148;16.326;2023-04-09T00:16:07;5.10;1.00
10566;DHT22;5331;48.148;16.326;2023-04-09T00:18:34;5.10;1.00
10566;DHT22;5331;48.148;16.326;2023-04-09T00:21:01;5.10;1.00
10566;DHT22;5331;48.148;16.326;2023-04-09T00:23:27;5.10;1.00
10566;DHT22;5331;48.148;16.326;2023-04-09T00:25:56;5.10;1.00
10566;DHT22;5331;48.148;16.326;2023-04-09T00:28:23;5.10;1.00
10566;DHT22;5331;48.148;16.326;2023-04-09T00:30:51;5.10;1.00
10566;DHT22;5331;48.148;16.326;2023-04-09T00:33:18;5.10;1.00
10566;DHT22;5331;48.148;16.326;2023-04-09T00:35:45;5.10;1.00
10566;DHT22;5331;48.148;16.326;2023-04-09T00:38:11;5.10;1.00
10566;DHT22;5331;48.148;16.326;2023-04-09T00:40:38;5.10;1.00
10566;DHT22;5331;48.148;16.326;2023-04-09T00:43:07;5.10;1.00
10566;DHT22;5331;48.148;16.326;2023-04-09T00:45:34;5.10;1.00
10566;DHT22;5331;48.148;16.326;2023-04-09T00:48:01;5.10;1.00
10566;DHT22;5331;48.148;16.326;2023-04-09T00:50:28;5.10;1.00
10566;DHT22;5331;48.148;16.326;2023-04-09T00:52:55;5.10;1.00
10566;DHT22;5331;48.148;16.326;2023-04-09T00:55:22;5.10;1.00
10566;DHT22;5331;48.148;16.326;2023-04-09T00:57:50;5.10;1.00
10566;DHT22;5331;48.148;16.326;2023-04-09T01:00:18;5.10;1.00
10566;DHT22;5331;48.148;16.326;2023-04-09T01:02:46;5.10;1.00
10566;DHT22;5331;48.148;16.326;2023-04-09T01:05:13;5.10;1.00
10566;DHT22;5331;48.148;16.326;2023-04-09T01:07:59;5.10;1.00
10566;DHT22;5331;48.148;16.326;2023-04-09T01:10:33;5.10;1.00
10566;DHT22;5331;48.148;16.326;2023-04-09T01:13:07;5.10;1.00
10566;DHT22;5331;48.148;16.326;2023-04-09T01:15:44;5.00;1.00
10566;DHT22;5331;48.148;16.326;2023-04-09T01:18:18;5.00;1.00
10566;DHT22;5331;48.148;16.326;2023-04-09T01:20:54;5.00;1.00
10566;DHT22;5331;48.148;16.326;2023-04-09T01:23:31;5.00;1.00
10566;DHT22;5331;48.148;16.326;2023-04-09T01:26:06;4.90;1.00
10566;DHT22;5331;48.148;16.326;2023-04-09T01:28:42;4.90;1.00
10566;DHT22;5331;48.148;16.326;2023-04-09T01:31:12;4.90;1.00
10566;DHT22;5331;48.148;16.326;2023-04-09T01:33:40;4.90;1.00
10566;DHT22;5331;48.148;16.326;2023-04-09T01:36:08;4.90;1.00
10566;DHT22;5331;48.148;16.326;2023-04-09T01:38:38;4.80;1.00
10566;DHT22;5331;48.148;16.326;2023-04-09T01:41:07;4.80;1.00
10566;DHT22;5331;48.148;16.326;2023-04-09T01:43:36;4.80;1.00
10566;DHT22;5331;48.148;16.326;2023-04-09T01:46:05;4.80;1.00
10566;DHT22;5331;48.148;16.326;2023-04-09T01:48:32;4.80;1.00
10566;DHT22;5331;48.148;16.326;2023-04-09T01:51:00;4.80;1.00
10566;DHT22;5331;48.148;16.326;2023-04-09T01:53:27;4.70;1.00
10566;DHT22;5331;48.148;16.326;2023-04-09T01:55:55;4.70;1.00
10566;DHT22;5331;48.148;16.326;2023-04-09T01:58:23;4.70;1.00
10566;DHT22;5331;48.148;16.326;2023-04-09T02:00:51;4.70;1.00
10566;DHT22;5331;48.148;16.326;2023-04-09T02:03:25;4.70;1.00
10566;DHT22;5331;48.148;16.326;2023-04-09T02:05:56;4.70;1.00
10566;DHT22;5331;48.148;16.326;2023-04-09T02:08:27;4.70;1.00
10566;DHT22;5331;48.148;16.326;2023-04-09T02:10:58;4.70;1.00
10566;DHT22;5331;48.148;16.326;2023-04-09T02:13:27;4.70;1.00
10566;DHT22;5331;48.148;16.326;2023-04-09T02:15:57;4.70;1.00
10566;DHT22;5331;48.148;16.326;2023-04-09T02:18:27;4.70;1.00
10566;DHT22;5331;48.148;16.326;2023-04-09T02:20:56;4.70;1.00
10566;DHT22;5331;48.148;16.326;2023-04-09T02:23:24;4.70;1.00
10566;DHT22;5331;48.148;16.326;2023-04-09T02:25:52;4.80;1.00
10566;DHT22;5331;48.148;16.326;2023-04-09T02:28:19;4.80;1.00
10566;DHT22;5331;48.148;16.326;2023-04-09T02:30:46;4.70;1.00
10566;DHT22;5331;48.148;16.326;2023-04-09T02:33:13;4.70;1.00
10566;DHT22;5331;48.148;16.326;2023-04-09T02:35:41;4.70;1.00
10566;DHT22;5331;48.148;16.326;2023-04-09T02:38:08;4.70;1.00
10566;DHT22;5331;48.148;16.326;2023-04-09T02:40:38;4.70;1.00
10566;DHT22;5331;48.148;16.326;2023-04-09T02:43:06;4.60;1.00
10566;DHT22;5331;48.148;16.326;2023-04-09T02:45:33;4.60;1.00
10566;DHT22;5331;48.148;16.326;2023-04-09T02:47:59;4.60;1.00
10566;DHT22;5331;48.148;16.326;2023-04-09T02:50:26;4.60;1.00
10566;DHT22;5331;48.148;16.326;2023-04-09T02:52:55;4.60;1.00
10566;DHT22;5331;48.148;16.326;2023-04-09T02:55:22;4.60;1.00
10566;DHT22;5331;48.148;16.326;2023-04-09T02:57:49;4.60;1.00
10566;DHT22;5331;48.148;16.326;2023-04-09T03:00:16;4.60;1.00
10566;DHT22;5331;48.148;16.326;2023-04-09T03:02:43;4.50;1.00
10566;DHT22;5331;48.148;16.326;2023-04-09T03:05:10;4.50;1.00
10566;DHT22;5331;48.148;16.326;2023-04-09T03:07:36;4.50;1.00
10566;DHT22;5331;48.148;16.326;2023-04-09T03:10:06;4.50;1.00
10566;DHT22;5331;48.148;16.326;2023-04-09T03:12:33;4.50;1.00
10566;DHT22;5331;48.148;16.326;2023-04-09T03:15:00;4.50;1.00
10566;DHT22;5331;48.148;16.326;2023-04-09T03:17:27;4.50;1.00
10566;DHT22;5331;48.148;16.326;2023-04-09T03:19:56;4.50;1.00
10566;DHT22;5331;48.148;16.326;2023-04-09T03:22:23;4.50;1.00
10566;DHT22;5331;48.148;16.326;2023-04-09T03:24:50;4.50;1.00
10566;DHT22;5331;48.148;16.326;2023-04-09T03:27:18;4.50;1.00
10566;DHT22;5331;48.148;16.326;2023-04-09T03:29:45;4.50;1.00
10566;DHT22;5331;48.148;16.326;2023-04-09T03:32:12;4.50;1.00
10566;DHT22;5331;48.148;16.326;2023-04-09T03:34:39;4.50;1.00
10566;DHT22;5331;48.148;16.326;2023-04-09T03:37:06;4.50;1.00
10566;DHT22;5331;48.148;16.326;2023-04-09T03:39:33;4.50;1.00
10566;DHT22;5331;48.148;16.326;2023-04-09T03:42:00;4.50;1.00
10566;DHT22;5331;48.148;16.326;2023-04-09T03:44:28;4.50;1.00
10566;DHT22;5331;48.148;16.326;2023-04-09T03:46:55;4.40;1.00
10566;DHT22;5331;48.148;16.326;2023-04-09T03:49:22;4.50;1.00
10566;DHT22;5331;48.148;16.326;2023-04-09T03:51:49;4.40;1.00
10566;DHT22;5331;48.148;16.326;2023-04-09T03:54:16;4.50;1.00
10566;DHT22;5331;48.148;16.326;2023-04-09T03:56:43;4.50;1.00
10566;DHT22;5331;48.148;16.326;2023-04-09T03:59:10;4.50;1.00
10566;DHT22;5331;48.148;16.326;2023-04-09T04:01:38;4.40;1.00
10566;DHT22;5331;48.148;16.326;2023-04-09T04:04:05;4.40;1.00
10566;DHT22;5331;48.148;16.326;2023-04-09T04:06:32;4.50;1.00
10566;DHT22;5331;48.148;16.326;2023-04-09T04:09:00;4.40;1.00
10566;DHT22;5331;48.148;16.326;2023-04-09T04:11:27;4.40;1.00
10566;DHT22;5331;48.148;16.326;2023-04-09T04:13:54;4.40;1.00
10566;DHT22;5331;48.148;16.326;2023-04-09T04:16:22;4.50;1.00
10566;DHT22;5331;48.148;16.326;2023-04-09T04:18:50;4.50;1.00
10566;DHT22;5331;48.148;16.326;2023-04-09T04:21:17;4.50;1.00
10566;DHT22;5331;48.148;16.326;2023-04-09T04:23:44;4.50;1.00
10566;DHT22;5331;48.148;16.326;2023-04-09T04:26:11;4.50;1.00
10566;DHT22;5331;48.148;16.326;2023-04-09T04:28:39;4.50;1.00
10566;DHT22;5331;48.148;16.326;2023-04-09T04:31:09;4.50;1.00
10566;DHT22;5331;48.148;16.326;2023-04-09T04:33:37;4.50;1.00
10566;DHT22;5331;48.148;16.326;2023-04-09T04:36:06;4.50;1.00
10566;DHT22;5331;48.148;16.326;2023-04-09T04:38:33;4.50;1.00
10566;DHT22;5331;48.148;16.326;2023-04-09T04:41:01;4.50;1.00
10566;DHT22;5331;48.148;16.326;2023-04-09T04:43:28;4.60;1.00
10566;DHT22;5331;48.148;16.326;2023-04-09T04:45:55;4.60;1.00
10566;DHT22;5331;48.148;16.326;2023-04-09T04:48:22;4.60;1.00
10566;DHT22;5331;48.148;16.326;2023-04-09T04:50:55;4.60;1.00
10566;DHT22;5331;48.148;16.326;2023-04-09T04:53:24;4.60;1.00
10566;DHT22;5331;48.148;16.326;2023-04-09T04:55:52;4.60;1.00
10566;DHT22;5331;48.148;16.326;2023-04-09T04:58:19;4.70;1.00
10566;DHT22;5331;48.148;16.326;2023-04-09T05:00:46;4.70;1.00
10566;DHT22;5331;48.148;16.326;2023-04-09T05:03:13;4.70;1.00
10566;DHT22;5331;48.148;16.326;2023-04-09T05:05:40;4.70;1.00
10566;DHT22;5331;48.148;16.326;2023-04-09T05:08:07;4.70;1.00
10566;DHT22;5331;48.148;16.326;2023-04-09T05:10:35;4.80;1.00
10566;DHT22;5331;48.148;16.326;2023-04-09T05:13:02;4.70;1.00
10566;DHT22;5331;48.148;16.326;2023-04-09T05:15:29;4.80;1.00
10566;DHT22;5331;48.148;16.326;2023-04-09T05:17:56;4.90;1.00
10566;DHT22;5331;48.148;16.326;2023-04-09T05:20:24;4.80;1.00
10566;DHT22;5331;48.148;16.326;2023-04-09T05:22:52;4.80;1.00
10566;DHT22;5331;48.148;16.326;2023-04-09T05:25:19;5.00;1.00
10566;DHT22;5331;48.148;16.326;2023-04-09T05:27:48;5.00;1.00
10566;DHT22;5331;48.148;16.326;2023-04-09T05:30:15;5.10;1.00
10566;DHT22;5331;48.148;16.326;2023-04-09T05:32:42;5.00;1.00
10566;DHT22;5331;48.148;16.326;2023-04-09T05:35:09;5.00;1.00
10566;DHT22;5331;48.148;16.326;2023-04-09T05:37:35;5.10;1.00
10566;DHT22;5331;48.148;16.326;2023-04-09T05:40:03;5.10;1.00
10566;DHT22;5331;48.148;16.326;2023-04-09T05:42:30;5.10;1.00
10566;DHT22;5331;48.148;16.326;2023-04-09T05:44:58;5.20;1.00
10566;DHT22;5331;48.148;16.326;2023-04-09T05:47:25;5.20;1.00
10566;DHT22;5331;48.148;16.326;2023-04-09T05:49:53;5.30;1.00
10566;DHT22;5331;48.148;16.326;2023-04-09T05:52:20;5.30;1.00
10566;DHT22;5331;48.148;16.326;2023-04-09T05:54:47;5.30;1.00
10566;DHT22;5331;48.148;16.326;2023-04-09T05:57:14;5.40;1.00
10566;DHT22;5331;48.148;16.326;2023-04-09T05:59:41;5.40;1.00
10566;DHT22;5331;48.148;16.326;2023-04-09T06:02:09;5.40;1.00
10566;DHT22;5331;48.148;16.326;2023-04-09T06:04:36;5.50;1.00
10566;DHT22;5331;48.148;16.326;2023-04-09T06:07:03;5.50;1.00
10566;DHT22;5331;48.148;16.326;2023-04-09T06:09:30;5.50;1.00
10566;DHT22;5331;48.148;16.326;2023-04-09T06:11:57;5.60;1.00
10566;DHT22;5331;48.148;16.326;2023-04-09T06:14:24;5.80;1.00
10566;DHT22;5331;48.148;16.326;2023-04-09T06:16:51;5.90;1.00
10566;DHT22;5331;48.148;16.326;2023-04-09T06:19:19;6.00;1.00
10566;DHT22;5331;48.148;16.326;2023-04-09T06:21:46;6.10;1.00
10566;DHT22;5331;48.148;16.326;2023-04-09T06:24:13;6.20;1.00
10566;DHT22;5331;48.148;16.326;2023-04-09T06:26:40;6.20;1.00
10566;DHT22;5331;48.148;16.326;2023-04-09T06:29:07;6.30;1.00
10566;DHT22;5331;48.148;16.326;2023-04-09T06:31:33;6.30;1.00
10566;DHT22;5331;48.148;16.326;2023-04-09T06:34:00;6.40;1.00
10566;DHT22;5331;48.148;16.326;2023-04-09T06:36:29;6.50;1.00
10566;DHT22;5331;48.148;16.326;2023-04-09T06:38:55;6.50;1.00
10566;DHT22;5331;48.148;16.326;2023-04-09T06:41:23;6.60;1.00
10566;DHT22;5331;48.148;16.326;2023-04-09T06:43:51;6.70;1.00
10566;DHT22;5331;48.148;16.326;2023-04-09T06:46:18;6.80;1.00
10566;DHT22;5331;48.148;16.326;2023-04-09T06:48:46;6.80;1.00
10566;DHT22;5331;48.148;16.326;2023-04-09T06:51:13;6.80;1.00
10566;DHT22;5331;48.148;16.326;2023-04-09T06:53:41;6.70;1.00
10566;DHT22;5331;48.148;16.326;2023-04-09T06:56:09;6.70;1.00
10566;DHT22;5331;48.148;16.326;2023-04-09T06:58:36;6.70;1.00
10566;DHT22;5331;48.148;16.326;2023-04-09T07:01:03;6.80;1.00
10566;DHT22;5331;48.148;16.326;2023-04-09T07:03:30;6.80;1.00
10566;DHT22;5331;48.148;16.326;2023-04-09T07:05:57;6.90;1.00
10566;DHT22;5331;48.148;16.326;2023-04-09T07:08:24;6.90;1.00
10566;DHT22;5331;48.148;16.326;2023-04-09T07:10:52;6.90;1.00
10566;DHT22;5331;48.148;16.326;2023-04-09T07:13:19;7.00;1.00
10566;DHT22;5331;48.148;16.326;2023-04-09T07:15:46;7.10;1.00
10566;DHT22;5331;48.148;16.326;2023-04-09T07:18:13;7.20;1.00
10566;DHT22;5331;48.148;16.326;2023-04-09T07:20:40;7.40;1.00
10566;DHT22;5331;48.148;16.326;2023-04-09T07:23:07;7.50;1.00
10566;DHT22;5331;48.148;16.326;2023-04-09T07:25:34;7.70;1.00
10566;DHT22;5331;48.148;16.326;2023-04-09T07:28:03;7.70;1.00
10566;DHT22;5331;48.148;16.326;2023-04-09T07:30:31;7.80;1.00
10566;DHT22;5331;48.148;16.326;2023-04-09T07:32:58;7.90;1.00
10566;DHT22;5331;48.148;16.326;2023-04-09T07:35:25;7.90;1.00
10566;DHT22;5331;48.148;16.326;2023-04-09T07:37:52;7.90;1.00
10566;DHT22;5331;48.148;16.326;2023-04-09T07:40:19;7.90;1.00
10566;DHT22;5331;48.148;16.326;2023-04-09T07:42:46;7.90;1.00
10566;DHT22;5331;48.148;16.326;2023-04-09T07:45:14;7.90;1.00
10566;DHT22;5331;48.148;16.326;2023-04-09T07:47:41;7.90;1.00
10566;DHT22;5331;48.148;16.326;2023-04-09T07:50:09;7.80;1.00
10566;DHT22;5331;48.148;16.326;2023-04-09T07:52:36;7.80;1.00
10566;DHT22;5331;48.148;16.326;2023-04-09T07:55:04;7.80;1.00
10566;DHT22;5331;48.148;16.326;2023-04-09T07:57:31;7.70;1.00
10566;DHT22;5331;48.148;16.326;2023-04-09T07:59:58;7.70;1.00
10566;DHT22;5331;48.148;16.326;2023-04-09T08:02:27;7.70;1.00
10566;DHT22;5331;48.148;16.326;2023-04-09T08:04:55;7.70;1.00
10566;DHT22;5331;48.148;16.326;2023-04-09T08:07:22;7.70;1.00
10566;DHT22;5331;48.148;16.326;2023-04-09T08:09:49;7.70;1.00
10566;DHT22;5331;48.148;16.326;2023-04-09T08:12:17;7.70;1.00
10566;DHT22;5331;48.148;16.326;2023-04-09T08:14:43;7.70;1.00
10566;DHT22;5331;48.148;16.326;2023-04-09T08:17:10;7.70;1.00
10566;DHT22;5331;48.148;16.326;2023-04-09T08:19:39;7.70;1.00
10566;DHT22;5331;48.148;16.326;2023-04-09T08:22:06;7.60;1.00
10566;DHT22;5331;48.148;16.326;2023-04-09T08:24:33;7.50;1.00
10566;DHT22;5331;48.148;16.326;2023-04-09T08:27:00;7.50;1.00
10566;DHT22;5331;48.148;16.326;2023-04-09T08:29:28;7.40;1.00
10566;DHT22;5331;48.148;16.326;2023-04-09T08:31:56;7.50;1.00
10566;DHT22;5331;48.148;16.326;2023-04-09T08:34:23;7.60;1.00
10566;DHT22;5331;48.148;16.326;2023-04-09T08:36:51;7.70;1.00
10566;DHT22;5331;48.148;16.326;2023-04-09T08:39:18;7.80;1.00
10566;DHT22;5331;48.148;16.326;2023-04-09T08:41:45;7.90;1.00
10566;DHT22;5331;48.148;16.326;2023-04-09T08:44:13;8.00;1.00
10566;DHT22;5331;48.148;16.326;2023-04-09T08:46:41;8.00;1.00
10566;DHT22;5331;48.148;16.326;2023-04-09T08:49:09;8.10;1.00
10566;DHT22;5331;48.148;16.326;2023-04-09T08:51:37;8.10;1.00
10566;DHT22;5331;48.148;16.326;2023-04-09T08:54:07;8.10;1.00
10566;DHT22;5331;48.148;16.326;2023-04-09T08:56:34;8.10;1.00
10566;DHT22;5331;48.148;16.326;2023-04-09T08:59:01;8.30;1.00
10566;DHT22;5331;48.148;16.326;2023-04-09T09:01:29;8.50;1.00
10566;DHT22;5331;48.148;16.326;2023-04-09T09:03:59;8.80;1.00
10566;DHT22;5331;48.148;16.326;2023-04-09T09:06:27;8.90;1.00
10566;DHT22;5331;48.148;16.326;2023-04-09T09:09:02;9.00;1.00
10566;DHT22;5331;48.148;16.326;2023-04-09T09:11:31;8.90;1.00
10566;DHT22;5331;48.148;16.326;2023-04-09T09:13:59;8.90;1.00
10566;DHT22;5331;48.148;16.326;2023-04-09T09:16:27;8.90;1.00
10566;DHT22;5331;48.148;16.326;2023-04-09T09:18:54;8.90;1.00
10566;DHT22;5331;48.148;16.326;2023-04-09T09:21:22;9.00;1.00
10566;DHT22;5331;48.148;16.326;2023-04-09T09:23:49;9.00;1.00
10566;DHT22;5331;48.148;16.326;2023-04-09T09:26:19;8.80;1.00
10566;DHT22;5331;48.148;16.326;2023-04-09T09:28:48;8.80;1.00
10566;DHT22;5331;48.148;16.326;2023-04-09T09:31:16;8.80;1.00
10566;DHT22;5331;48.148;16.326;2023-04-09T09:33:43;8.70;1.00
10566;DHT22;5331;48.148;16.326;2023-04-09T09:36:11;8.60;1.00
10566;DHT22;5331;48.148;16.326;2023-04-09T09:38:52;8.50;1.00
10566;DHT22;5331;48.148;16.326;2023-04-09T09:41:20;8.60;1.00
10566;DHT22;5331;48.148;16.326;2023-04-09T09:43:49;8.60;1.00
10566;DHT22;5331;48.148;16.326;2023-04-09T09:46:16;8.50;1.00
10566;DHT22;5331;48.148;16.326;2023-04-09T09:48:43;8.60;1.00
10566;DHT22;5331;48.148;16.326;2023-04-09T09:51:12;8.60;1.00
10566;DHT22;5331;48.148;16.326;2023-04-09T09:53:43;8.70;1.00
10566;DHT22;5331;48.148;16.326;2023-04-09T09:56:15;8.80;1.00
10566;DHT22;5331;48.148;16.326;2023-04-09T09:58:51;8.90;1.00
10566;DHT22;5331;48.148;16.326;2023-04-09T10:01:21;9.10;1.00
10566;DHT22;5331;48.148;16.326;2023-04-09T10:03:50;9.30;1.00
10566;DHT22;5331;48.148;16.326;2023-04-09T10:06:17;9.70;1.00
10566;DHT22;5331;48.148;16.326;2023-04-09T10:08:48;10.00;1.00
10566;DHT22;5331;48.148;16.326;2023-04-09T10:11:16;10.20;1.00
10566;DHT22;5331;48.148;16.326;2023-04-09T10:13:58;10.30;1.00
10566;DHT22;5331;48.148;16.326;2023-04-09T10:16:26;10.40;1.00
10566;DHT22;5331;48.148;16.326;2023-04-09T10:18:54;10.40;1.00
10566;DHT22;5331;48.148;16.326;2023-04-09T10:21:33;10.30;1.00
10566;DHT22;5331;48.148;16.326;2023-04-09T10:24:04;10.20;1.00
10566;DHT22;5331;48.148;16.326;2023-04-09T10:26:33;10.20;1.00
10566;DHT22;5331;48.148;16.326;2023-04-09T10:29:09;10.30;1.00
10566;DHT22;5331;48.148;16.326;2023-04-09T10:31:47;10.40;1.00
10566;DHT22;5331;48.148;16.326;2023-04-09T10:34:17;10.40;1.00
10566;DHT22;5331;48.148;16.326;2023-04-09T10:36:50;10.50;1.00
10566;DHT22;5331;48.148;16.326;2023-04-09T10:39:17;10.50;1.00
10566;DHT22;5331;48.148;16.326;2023-04-09T10:41:47;10.70;1.00
10566;DHT22;5331;48.148;16.326;2023-04-09T10:44:22;10.80;1.00
10566;DHT22;5331;48.148;16.326;2023-04-09T10:46:52;10.90;1.00
10566;DHT22;5331;48.148;16.326;2023-04-09T10:49:20;11.00;1.00
10566;DHT22;5331;48.148;16.326;2023-04-09T10:51:50;11.00;1.00
10566;DHT22;5331;48.148;16.326;2023-04-09T10:54:43;10.80;1.00
10566;DHT22;5331;48.148;16.326;2023-04-09T10:57:12;10.70;1.00
10566;DHT22;5331;48.148;16.326;2023-04-09T10:59:43;10.70;1.00
10566;DHT22;5331;48.148;16.326;2023-04-09T11:05:17;10.30;1.00
10566;DHT22;5331;48.148;16.326;2023-04-09T11:07:47;10.00;1.00
10566;DHT22;5331;48.148;16.326;2023-04-09T11:10:15;9.80;1.00
10566;DHT22;5331;48.148;16.326;2023-04-09T11:12:42;10.00;1.00
10566;DHT22;5331;48.148;16.326;2023-04-09T11:15:16;10.20;1.00
10566;DHT22;5331;48.148;16.326;2023-04-09T11:17:45;10.30;1.00
10566;DHT22;5331;48.148;16.326;2023-04-09T11:20:12;10.30;1.00
10566;DHT22;5331;48.148;16.326;2023-04-09T11:22:41;10.30;1.00
10566;DHT22;5331;48.148;16.326;2023-04-09T11:25:08;10.40;1.00
10566;DHT22;5331;48.148;16.326;2023-04-09T11:27:36;10.30;1.00
10566;DHT22;5331;48.148;16.326;2023-04-09T11:30:05;10.30;1.00
10566;DHT22;5331;48.148;16.326;2023-04-09T11:32:34;10.40;1.00
10566;DHT22;5331;48.148;16.326;2023-04-09T11:35:01;10.50;1.00
10566;DHT22;5331;48.148;16.326;2023-04-09T11:37:30;10.50;1.00
10566;DHT22;5331;48.148;16.326;2023-04-09T11:39:58;10.60;1.00
10566;DHT22;5331;48.148;16.326;2023-04-09T11:42:29;10.70;1.00
10566;DHT22;5331;48.148;16.326;2023-04-09T11:44:56;10.80;1.00
10566;DHT22;5331;48.148;16.326;2023-04-09T11:47:23;10.40;1.00
10566;DHT22;5331;48.148;16.326;2023-04-09T11:49:52;10.30;1.00
10566;DHT22;5331;48.148;16.326;2023-04-09T11:52:19;10.50;1.00
10566;DHT22;5331;48.148;16.326;2023-04-09T11:54:48;10.60;1.00
10566;DHT22;5331;48.148;16.326;2023-04-09T11:57:15;10.70;1.00
10566;DHT22;5331;48.148;16.326;2023-04-09T11:59:42;10.80;1.00
10566;DHT22;5331;48.148;16.326;2023-04-09T12:02:11;10.80;1.00
10566;DHT22;5331;48.148;16.326;2023-04-09T12:04:48;10.80;1.00
10566;DHT22;5331;48.148;16.326;2023-04-09T12:07:17;10.80;1.00
10566;DHT22;5331;48.148;16.326;2023-04-09T12:09:48;10.80;1.00
10566;DHT22;5331;48.148;16.326;2023-04-09T12:12:17;11.00;1.00
10566;DHT22;5331;48.148;16.326;2023-04-09T12:14:45;11.10;1.00
10566;DHT22;5331;48.148;16.326;2023-04-09T12:17:12;11.40;1.00
10566;DHT22;5331;48.148;16.326;2023-04-09T12:19:39;11.50;1.00
10566;DHT22;5331;48.148;16.326;2023-04-09T12:22:06;11.60;1.00
10566;DHT22;5331;48.148;16.326;2023-04-09T12:24:34;12.00;1.00
10566;DHT22;5331;48.148;16.326;2023-04-09T12:27:02;12.20;1.00
10566;DHT22;5331;48.148;16.326;2023-04-09T12:29:30;12.40;1.00
10566;DHT22;5331;48.148;16.326;2023-04-09T12:32:01;12.40;1.00
10566;DHT22;5331;48.148;16.326;2023-04-09T12:34:29;12.30;1.00
10566;DHT22;5331;48.148;16.326;2023-04-09T12:36:56;12.20;1.00
10566;DHT22;5331;48.148;16.326;2023-04-09T12:39:23;11.50;1.00
10566;DHT22;5331;48.148;16.326;2023-04-09T12:41:52;11.30;1.00
10566;DHT22;5331;48.148;16.326;2023-04-09T12:44:23;11.20;1.00
10566;DHT22;5331;48.148;16.326;2023-04-09T12:46:51;11.20;1.00
10566;DHT22;5331;48.148;16.326;2023-04-09T12:49:18;11.30;1.00
10566;DHT22;5331;48.148;16.326;2023-04-09T12:51:47;11.40;1.00
10566;DHT22;5331;48.148;16.326;2023-04-09T12:54:14;11.50;1.00
10566;DHT22;5331;48.148;16.326;2023-04-09T12:56:41;11.60;1.00
10566;DHT22;5331;48.148;16.326;2023-04-09T12:59:15;11.40;1.00
10566;DHT22;5331;48.148;16.326;2023-04-09T13:01:42;11.10;1.00
10566;DHT22;5331;48.148;16.326;2023-04-09T13:04:09;10.80;1.00
10566;DHT22;5331;48.148;16.326;2023-04-09T13:06:37;10.70;1.00
10566;DHT22;5331;48.148;16.326;2023-04-09T13:09:08;10.50;1.00
10566;DHT22;5331;48.148;16.326;2023-04-09T13:11:36;10.40;1.00
10566;DHT22;5331;48.148;16.326;2023-04-09T13:14:03;10.40;1.00
10566;DHT22;5331;48.148;16.326;2023-04-09T13:16:33;10.40;1.00
10566;DHT22;5331;48.148;16.326;2023-04-09T13:19:01;10.40;1.00
10566;DHT22;5331;48.148;16.326;2023-04-09T13:21:28;10.30;1.00
10566;DHT22;5331;48.148;16.326;2023-04-09T13:24:05;10.30;1.00
10566;DHT22;5331;48.148;16.326;2023-04-09T13:26:37;10.20;1.00
10566;DHT22;5331;48.148;16.326;2023-04-09T13:29:04;10.20;1.00
10566;DHT22;5331;48.148;16.326;2023-04-09T13:31:35;10.20;1.00
10566;DHT22;5331;48.148;16.326;2023-04-09T13:34:06;10.10;1.00
10566;DHT22;5331;48.148;16.326;2023-04-09T13:36:34;10.00;1.00
10566;DHT22;5331;48.148;16.326;2023-04-09T13:39:01;9.70;1.00
10566;DHT22;5331;48.148;16.326;2023-04-09T13:41:32;9.70;1.00
10566;DHT22;5331;48.148;16.326;2023-04-09T13:44:01;9.70;1.00
10566;DHT22;5331;48.148;16.326;2023-04-09T13:46:28;9.90;1.00
10566;DHT22;5331;48.148;16.326;2023-04-09T13:48:57;9.90;1.00
10566;DHT22;5331;48.148;16.326;2023-04-09T13:51:26;10.00;1.00
10566;DHT22;5331;48.148;16.326;2023-04-09T13:53:54;10.10;1.00
10566;DHT22;5331;48.148;16.326;2023-04-09T13:56:25;10.10;1.00
10566;DHT22;5331;48.148;16.326;2023-04-09T13:58:53;10.20;1.00
10566;DHT22;5331;48.148;16.326;2023-04-09T14:01:20;10.20;1.00
10566;DHT22;5331;48.148;16.326;2023-04-09T14:03:47;10.30;1.00
10566;DHT22;5331;48.148;16.326;2023-04-09T14:06:18;10.40;1.00
10566;DHT22;5331;48.148;16.326;2023-04-09T14:08:47;10.50;1.00
10566;DHT22;5331;48.148;16.326;2023-04-09T14:11:17;10.60;1.00
10566;DHT22;5331;48.148;16.326;2023-04-09T14:13:47;10.50;1.00
10566;DHT22;5331;48.148;16.326;2023-04-09T14:16:19;10.50;1.00
10566;DHT22;5331;48.148;16.326;2023-04-09T14:18:48;10.50;1.00
10566;DHT22;5331;48.148;16.326;2023-04-09T14:21:22;10.60;1.00
10566;DHT22;5331;48.148;16.326;2023-04-09T14:23:51;10.70;1.00
10566;DHT22;5331;48.148;16.326;2023-04-09T14:26:24;10.50;1.00
10566;DHT22;5331;48.148;16.326;2023-04-09T14:28:52;10.60;1.00
10566;DHT22;5331;48.148;16.326;2023-04-09T14:31:19;10.40;1.00
10566;DHT22;5331;48.148;16.326;2023-04-09T14:33:52;10.40;1.00
10566;DHT22;5331;48.148;16.326;2023-04-09T14:36:21;10.50;1.00
10566;DHT22;5331;48.148;16.326;2023-04-09T14:38:48;10.50;1.00
10566;DHT22;5331;48.148;16.326;2023-04-09T14:41:15;10.40;1.00
10566;DHT22;5331;48.148;16.326;2023-04-09T14:43:42;10.30;1.00
10566;DHT22;5331;48.148;16.326;2023-04-09T14:46:10;10.10;1.00
10566;DHT22;5331;48.148;16.326;2023-04-09T14:48:37;10.10;1.00
10566;DHT22;5331;48.148;16.326;2023-04-09T14:51:08;10.00;1.00
10566;DHT22;5331;48.148;16.326;2023-04-09T14:53:44;10.00;1.00
10566;DHT22;5331;48.148;16.326;2023-04-09T14:56:14;10.00;1.00
10566;DHT22;5331;48.148;16.326;2023-04-09T14:58:43;10.10;1.00
10566;DHT22;5331;48.148;16.326;2023-04-09T15:01:13;10.10;1.00
10566;DHT22;5331;48.148;16.326;2023-04-09T15:03:41;10.10;1.00
10566;DHT22;5331;48.148;16.326;2023-04-09T15:06:10;10.10;1.00
10566;DHT22;5331;48.148;16.326;2023-04-09T15:08:40;10.20;1.00
10566;DHT22;5331;48.148;16.326;2023-04-09T15:11:13;10.10;1.00
10566;DHT22;5331;48.148;16.326;2023-04-09T15:13:40;10.10;1.00
10566;DHT22;5331;48.148;16.326;2023-04-09T15:16:09;10.10;1.00
10566;DHT22;5331;48.148;16.326;2023-04-09T15:18:36;10.10;1.00
10566;DHT22;5331;48.148;16.326;2023-04-09T15:21:03;10.00;1.00
10566;DHT22;5331;48.148;16.326;2023-04-09T15:23:31;10.00;1.00
10566;DHT22;5331;48.148;16.326;2023-04-09T15:26:00;10.10;1.00
10566;DHT22;5331;48.148;16.326;2023-04-09T15:28:28;10.20;1.00
10566;DHT22;5331;48.148;16.326;2023-04-09T15:30:55;10.10;1.00
10566;DHT22;5331;48.148;16.326;2023-04-09T15:33:31;10.10;1.00
10566;DHT22;5331;48.148;16.326;2023-04-09T15:35:58;10.00;1.00
10566;DHT22;5331;48.148;16.326;2023-04-09T15:38:26;10.00;1.00
10566;DHT22;5331;48.148;16.326;2023-04-09T15:40:55;10.10;1.00
10566;DHT22;5331;48.148;16.326;2023-04-09T15:43:23;10.00;1.00
10566;DHT22;5331;48.148;16.326;2023-04-09T15:45:52;9.90;1.00
10566;DHT22;5331;48.148;16.326;2023-04-09T15:48:19;9.90;1.00
10566;DHT22;5331;48.148;16.326;2023-04-09T15:50:46;9.90;1.00
10566;DHT22;5331;48.148;16.326;2023-04-09T15:53:14;9.80;1.00
10566;DHT22;5331;48.148;16.326;2023-04-09T15:55:41;9.70;1.00
10566;DHT22;5331;48.148;16.326;2023-04-09T15:58:10;9.80;1.00
10566;DHT22;5331;48.148;16.326;2023-04-09T16:00:38;9.70;1.00
10566;DHT22;5331;48.148;16.326;2023-04-09T16:03:08;9.60;1.00
10566;DHT22;5331;48.148;16.326;2023-04-09T16:05:35;9.60;1.00
10566;DHT22;5331;48.148;16.326;2023-04-09T16:08:03;9.60;1.00